Time,TemperatureF,DewpointF,PressureIn,WindDirection,WindDirectionDegrees,WindSpeedMPH,WindSpeedGustMPH,Humidity,HourlyPrecipIn,Conditions,Clouds,dailyrainin,SoftwareType,DateUTC
2013-07-27 00:01:00,68.0,61.4,30.06,WSW,248,0.2,1.3,79,0.00,,,0.00,WUHU216HW,2013-07-27 04:01:00,
2013-07-27 00:06:00,67.9,61.2,30.06,WSW,248,0.0,0.7,79,0.00,,,0.00,WUHU216HW,2013-07-27 04:06:00,
2013-07-27 00:12:00,67.5,60.9,30.05,WSW,248,0.0,0.0,79,0.00,,,0.00,WUHU216HW,2013-07-27 04:12:00,
2013-07-27 00:17:00,66.8,60.5,30.05,WSW,248,0.0,0.7,80,0.00,,,0.00,WUHU216HW,2013-07-27 04:17:00,
2013-07-27 00:22:00,66.4,60.1,30.05,WSW,248,0.0,0.7,80,0.00,,,0.00,WUHU216HW,2013-07-27 04:22:00,
2013-07-27 00:27:00,66.2,60.3,30.05,WSW,248,0.0,0.0,81,0.00,,,0.00,WUHU216HW,2013-07-27 04:27:00,
2013-07-27 00:32:00,66.1,60.1,30.05,WSW,248,0.0,0.0,81,0.00,,,0.00,WUHU216HW,2013-07-27 04:32:00,
2013-07-27 00:37:00,66.1,60.1,30.05,WSW,248,0.0,0.0,81,0.00,,,0.00,WUHU216HW,2013-07-27 04:37:00,
2013-07-27 00:42:00,65.9,60.0,30.05,WSW,248,0.0,0.0,81,0.00,,,0.00,WUHU216HW,2013-07-27 04:42:00,
2013-07-27 00:47:00,65.9,60.0,30.05,WSW,248,0.0,0.0,81,0.00,,,0.00,WUHU216HW,2013-07-27 04:47:00,
2013-07-27 00:52:00,65.7,60.0,30.04,WSW,248,0.0,0.0,82,0.00,,,0.00,WUHU216HW,2013-07-27 04:52:00,
2013-07-27 00:57:00,65.5,59.9,30.04,WSW,248,0.0,0.0,82,0.00,,,0.00,WUHU216HW,2013-07-27 04:57:00,
2013-07-27 01:02:00,65.5,59.9,30.05,WSW,248,0.0,0.0,82,0.00,,,0.00,WUHU216HW,2013-07-27 05:02:00,
2013-07-27 01:07:00,65.3,59.7,30.04,WSW,248,0.0,0.0,82,0.00,,,0.00,WUHU216HW,2013-07-27 05:07:00,
2013-07-27 01:12:00,65.2,59.5,30.04,WSW,248,0.0,0.0,82,0.00,,,0.00,WUHU216HW,2013-07-27 05:12:00,
2013-07-27 01:17:00,65.2,60.2,30.05,WSW,248,0.2,0.2,84,0.00,,,0.00,WUHU216HW,2013-07-27 05:17:00,
2013-07-27 01:22:00,65.3,60.4,30.04,SW,225,0.0,0.7,84,0.00,,,0.00,WUHU216HW,2013-07-27 05:22:00,
2013-07-27 01:27:00,65.5,60.8,30.04,SW,225,0.7,1.1,85,0.00,,,0.00,WUHU216HW,2013-07-27 05:27:00,
2013-07-27 01:32:00,66.2,61.2,30.04,West,270,0.4,1.1,84,0.00,,,0.00,WUHU216HW,2013-07-27 05:32:00,
2013-07-27 01:37:00,66.4,61.1,30.04,West,270,0.0,1.1,83,0.00,,,0.00,WUHU216HW,2013-07-27 05:37:00,
2013-07-27 01:42:00,66.2,60.9,30.04,WSW,248,0.0,0.4,83,0.00,,,0.00,WUHU216HW,2013-07-27 05:42:00,
2013-07-27 01:47:00,66.1,60.4,30.04,WSW,248,0.0,0.4,82,0.00,,,0.00,WUHU216HW,2013-07-27 05:47:00,
2013-07-27 01:52:00,65.9,60.2,30.03,West,270,0.0,0.2,82,0.00,,,0.00,WUHU216HW,2013-07-27 05:52:00,
2013-07-27 01:57:00,65.7,60.8,30.04,SSW,203,0.0,0.4,84,0.00,,,0.00,WUHU216HW,2013-07-27 05:57:00,
2013-07-27 02:02:00,65.5,60.6,30.03,SSW,203,0.0,0.4,84,0.00,,,0.00,WUHU216HW,2013-07-27 06:02:00,
2013-07-27 02:07:00,65.5,60.6,30.03,SSW,203,0.2,0.4,84,0.00,,,0.00,WUHU216HW,2013-07-27 06:07:00,
2013-07-27 02:12:00,65.5,61.2,30.03,SW,225,0.9,1.1,86,0.00,,,0.00,WUHU216HW,2013-07-27 06:12:00,
2013-07-27 02:17:00,65.5,61.2,30.03,SW,225,1.1,1.6,86,0.00,,,0.00,WUHU216HW,2013-07-27 06:17:00,
2013-07-27 02:22:00,65.5,61.2,30.03,SSW,203,0.9,1.6,86,0.00,,,0.00,WUHU216HW,2013-07-27 06:22:00,
2013-07-27 02:27:00,65.3,61.0,30.03,SW,225,0.4,1.3,86,0.00,,,0.00,WUHU216HW,2013-07-27 06:27:00,
2013-07-27 02:32:00,65.2,60.8,30.03,SSW,203,0.4,1.1,86,0.00,,,0.00,WUHU216HW,2013-07-27 06:32:00,
2013-07-27 02:37:00,65.0,60.4,30.03,SSW,203,0.9,1.1,85,0.00,,,0.00,WUHU216HW,2013-07-27 06:37:00,
2013-07-27 02:42:00,65.2,61.2,30.03,WSW,248,1.1,1.8,87,0.00,,,0.00,WUHU216HW,2013-07-27 06:42:00,
2013-07-27 02:47:00,65.2,61.2,30.03,SSW,203,0.7,1.8,87,0.00,,,0.00,WUHU216HW,2013-07-27 06:47:00,
2013-07-27 02:52:00,65.2,61.2,30.03,WSW,248,1.1,1.1,87,0.00,,,0.00,WUHU216HW,2013-07-27 06:52:00,
2013-07-27 02:57:00,65.0,60.7,30.02,WSW,248,0.4,1.1,86,0.00,,,0.00,WUHU216HW,2013-07-27 06:57:00,
2013-07-27 03:02:00,65.2,60.8,30.02,West,270,1.1,1.6,86,0.00,,,0.00,WUHU216HW,2013-07-27 07:02:00,
2013-07-27 03:07:00,65.2,61.6,30.02,WNW,293,2.5,2.5,88,0.00,,,0.00,WUHU216HW,2013-07-27 07:07:00,
2013-07-27 03:12:00,65.3,61.4,30.02,WSW,248,1.1,2.5,87,0.00,,,0.00,WUHU216HW,2013-07-27 07:12:00,
2013-07-27 03:17:00,65.3,61.8,30.02,West,270,1.3,2.7,88,0.00,,,0.00,WUHU216HW,2013-07-27 07:17:00,
2013-07-27 03:22:00,65.3,61.4,30.02,SW,225,0.0,2.7,87,0.00,,,0.00,WUHU216HW,2013-07-27 07:22:00,
2013-07-27 03:27:00,65.2,60.8,30.02,West,270,0.4,1.3,86,0.00,,,0.00,WUHU216HW,2013-07-27 07:27:00,
2013-07-27 03:32:00,65.0,60.7,30.02,SW,225,0.9,1.6,86,0.00,,,0.00,WUHU216HW,2013-07-27 07:32:00,
2013-07-27 03:37:00,65.0,60.7,30.02,WSW,248,0.0,1.8,86,0.00,,,0.00,WUHU216HW,2013-07-27 07:37:00,
2013-07-27 03:42:00,64.8,60.2,30.02,West,270,0.9,1.8,85,0.00,,,0.00,WUHU216HW,2013-07-27 07:42:00,
2013-07-27 03:47:00,64.8,60.2,30.02,WSW,248,1.1,1.8,85,0.00,,,0.00,WUHU216HW,2013-07-27 07:47:00,
2013-07-27 03:52:00,65.0,60.7,30.02,WNW,293,0.4,2.0,86,0.00,,,0.00,WUHU216HW,2013-07-27 07:52:00,
2013-07-27 03:57:00,65.0,60.7,30.02,SW,225,0.2,2.0,86,0.00,,,0.00,WUHU216HW,2013-07-27 07:57:00,
2013-07-27 04:02:00,64.8,60.2,30.02,North,0,0.2,2.0,85,0.00,,,0.00,WUHU216HW,2013-07-27 08:02:00,
2013-07-27 04:07:00,64.4,59.9,30.02,NNE,23,0.0,0.4,85,0.00,,,0.00,WUHU216HW,2013-07-27 08:07:00,
2013-07-27 04:12:00,64.1,59.5,30.02,NNW,338,0.0,0.4,85,0.00,,,0.00,WUHU216HW,2013-07-27 08:12:00,
2013-07-27 04:17:00,64.1,60.2,30.02,West,270,2.0,2.5,87,0.00,,,0.00,WUHU216HW,2013-07-27 08:17:00,
2013-07-27 04:22:00,64.4,60.8,30.01,WSW,248,0.4,2.5,88,0.00,,,0.00,WUHU216HW,2013-07-27 08:22:00,
2013-07-27 04:27:00,64.4,60.2,30.01,West,270,0.4,2.5,86,0.00,,,0.00,WUHU216HW,2013-07-27 08:27:00,
2013-07-27 04:32:00,64.4,60.6,30.01,WNW,293,2.5,2.5,87,0.00,,,0.00,WUHU216HW,2013-07-27 08:32:00,
2013-07-27 04:37:00,64.4,60.6,30.01,West,270,0.4,2.5,87,0.00,,,0.00,WUHU216HW,2013-07-27 08:37:00,
2013-07-27 04:42:00,64.4,60.6,30.01,SSW,203,0.4,2.5,87,0.00,,,0.00,WUHU216HW,2013-07-27 08:42:00,
2013-07-27 04:47:00,64.3,60.0,30.01,SSW,203,0.0,0.9,86,0.00,,,0.00,WUHU216HW,2013-07-27 08:47:00,
2013-07-27 04:52:00,64.1,60.2,30.01,SE,135,0.0,1.1,87,0.00,,,0.00,WUHU216HW,2013-07-27 08:52:00,
2013-07-27 04:57:00,63.9,60.0,30.01,SE,135,0.0,1.1,87,0.00,,,0.00,WUHU216HW,2013-07-27 08:57:00,
2013-07-27 05:02:00,63.7,59.5,30.01,SE,135,0.0,0.2,86,0.00,,,0.00,WUHU216HW,2013-07-27 09:02:00,
2013-07-27 05:07:00,63.5,59.0,30.01,SE,135,0.0,0.2,85,0.00,,,0.00,WUHU216HW,2013-07-27 09:07:00,
2013-07-27 05:12:00,63.2,59.3,30.01,SE,135,0.0,0.9,87,0.00,,,0.00,WUHU216HW,2013-07-27 09:12:00,
2013-07-27 05:17:00,63.0,58.8,30.00,SE,135,0.0,0.9,86,0.00,,,0.00,WUHU216HW,2013-07-27 09:17:00,
2013-07-27 05:22:00,63.0,58.8,30.00,South,180,0.0,0.4,86,0.00,,,0.00,WUHU216HW,2013-07-27 09:22:00,
2013-07-27 05:27:00,63.0,59.1,30.00,South,180,0.0,0.4,87,0.00,,,0.00,WUHU216HW,2013-07-27 09:27:00,
2013-07-27 05:32:00,62.8,58.6,30.00,South,180,0.0,0.4,86,0.00,,,0.00,WUHU216HW,2013-07-27 09:32:00,
2013-07-27 05:37:00,62.6,58.8,30.00,ENE,68,0.4,0.7,87,0.00,,,0.00,WUHU216HW,2013-07-27 09:37:00,
2013-07-27 05:42:00,62.6,59.0,30.00,East,90,0.4,0.7,88,0.00,,,0.00,WUHU216HW,2013-07-27 09:42:00,
2013-07-27 05:47:00,62.5,58.6,30.00,East,90,0.0,0.4,87,0.00,,,0.00,WUHU216HW,2013-07-27 09:47:00,
2013-07-27 05:52:00,62.6,58.8,30.00,East,90,0.0,0.4,87,0.00,,,0.00,WUHU216HW,2013-07-27 09:52:00,
2013-07-27 05:57:00,62.8,59.6,30.01,East,90,0.0,0.4,89,0.00,,,0.00,WUHU216HW,2013-07-27 09:57:00,
2013-07-27 06:02:00,63.0,60.1,30.01,SSW,203,0.4,0.9,90,0.00,,,0.00,WUHU216HW,2013-07-27 10:02:00,
2013-07-27 06:07:00,63.2,60.3,30.00,SSW,203,0.4,0.9,90,0.00,,,0.00,WUHU216HW,2013-07-27 10:07:00,
2013-07-27 06:12:00,63.2,59.9,30.01,SSW,203,0.0,1.3,89,0.00,,,0.00,WUHU216HW,2013-07-27 10:12:00,
2013-07-27 06:17:00,63.2,59.9,30.01,SSW,203,0.4,1.3,89,0.00,,,0.00,WUHU216HW,2013-07-27 10:17:00,
2013-07-27 06:22:00,63.4,59.8,30.01,WSW,248,0.0,0.9,88,0.00,,,0.00,WUHU216HW,2013-07-27 10:22:00,
2013-07-27 06:27:00,63.5,59.7,30.01,WSW,248,0.0,0.7,87,0.00,,,0.00,WUHU216HW,2013-07-27 10:27:00,
2013-07-27 06:32:00,63.5,59.7,30.01,WSW,248,0.0,0.0,87,0.00,,,0.00,WUHU216HW,2013-07-27 10:32:00,
2013-07-27 06:37:00,63.7,59.9,30.00,SSE,158,0.0,0.4,87,0.00,,,0.00,WUHU216HW,2013-07-27 10:37:00,
2013-07-27 06:42:00,64.3,60.4,30.00,SSW,203,0.0,0.4,87,0.00,,,0.00,WUHU216HW,2013-07-27 10:42:00,
2013-07-27 06:47:00,64.8,61.2,30.01,WSW,248,0.9,1.8,88,0.00,,,0.00,WUHU216HW,2013-07-27 10:47:00,
2013-07-27 06:52:00,65.2,61.6,30.01,SSW,203,0.4,2.5,88,0.00,,,0.00,WUHU216HW,2013-07-27 10:52:00,
2013-07-27 06:57:00,65.5,61.8,30.01,West,270,2.7,2.7,88,0.00,,,0.00,WUHU216HW,2013-07-27 10:57:00,
2013-07-27 07:02:00,65.9,62.2,30.01,West,270,1.6,2.7,88,0.00,,,0.00,WUHU216HW,2013-07-27 11:02:00,
2013-07-27 07:07:00,66.2,62.2,30.01,West,270,3.6,3.6,87,0.00,,,0.00,WUHU216HW,2013-07-27 11:07:00,
2013-07-27 07:12:00,66.6,62.6,30.01,West,270,1.1,3.6,87,0.00,,,0.00,WUHU216HW,2013-07-27 11:12:00,
2013-07-27 07:17:00,66.6,62.6,30.01,West,270,1.8,3.6,87,0.00,,,0.00,WUHU216HW,2013-07-27 11:17:00,
2013-07-27 07:22:00,66.8,62.5,30.01,West,270,2.0,3.1,86,0.00,,,0.00,WUHU216HW,2013-07-27 11:22:00,
2013-07-27 07:27:00,67.0,62.7,30.01,West,270,1.1,2.7,86,0.00,,,0.00,WUHU216HW,2013-07-27 11:27:00,
2013-07-27 07:32:00,67.1,62.8,30.01,SSW,203,0.9,2.7,86,0.00,,,0.00,WUHU216HW,2013-07-27 11:32:00,
2013-07-27 07:37:00,67.3,63.3,30.01,ESE,113,1.1,2.2,87,0.00,,,0.00,WUHU216HW,2013-07-27 11:37:00,
2013-07-27 07:42:00,67.3,63.0,30.02,SE,135,0.0,2.2,86,0.00,,,0.00,WUHU216HW,2013-07-27 11:42:00,
2013-07-27 07:47:00,67.3,63.0,30.02,South,180,0.9,1.3,86,0.00,,,0.00,WUHU216HW,2013-07-27 11:47:00,
2013-07-27 07:52:00,67.5,63.2,30.02,SSW,203,1.1,1.3,86,0.00,,,0.00,WUHU216HW,2013-07-27 11:52:00,
2013-07-27 07:57:00,68.0,63.4,30.02,SSW,203,0.9,1.6,85,0.00,,,0.00,WUHU216HW,2013-07-27 11:57:00,
2013-07-27 08:02:00,68.6,63.5,30.02,SSW,203,1.1,1.8,84,0.00,,,0.00,WUHU216HW,2013-07-27 12:02:00,
2013-07-27 08:07:00,68.8,63.7,30.02,SW,225,1.6,2.0,84,0.00,,,0.00,WUHU216HW,2013-07-27 12:07:00,
2013-07-27 08:12:00,68.8,63.4,30.02,West,270,1.3,3.1,83,0.00,,,0.00,WUHU216HW,2013-07-27 12:12:00,
2013-07-27 08:17:00,69.3,63.9,30.02,WNW,293,1.1,3.1,83,0.00,,,0.00,WUHU216HW,2013-07-27 12:17:00,
2013-07-27 08:22:00,69.7,63.9,30.02,WSW,248,1.3,2.5,82,0.00,,,0.00,WUHU216HW,2013-07-27 12:22:00,
2013-07-27 08:27:00,70.2,64.5,30.02,WNW,293,1.8,3.1,82,0.00,,,0.00,WUHU216HW,2013-07-27 12:27:00,
2013-07-27 08:32:00,70.6,64.5,30.02,West,270,3.1,3.1,81,0.00,,,0.00,WUHU216HW,2013-07-27 12:32:00,
2013-07-27 08:37:00,70.7,64.3,30.02,West,270,1.8,3.1,80,0.00,,,0.00,WUHU216HW,2013-07-27 12:37:00,
2013-07-27 08:42:00,71.1,65.0,30.02,SSW,203,0.9,2.7,81,0.00,,,0.00,WUHU216HW,2013-07-27 12:42:00,
2013-07-27 08:47:00,71.6,65.2,30.02,SSE,158,0.0,2.7,80,0.00,,,0.00,WUHU216HW,2013-07-27 12:47:00,
2013-07-27 08:52:00,72.2,65.0,30.02,SSE,158,0.4,2.7,78,0.00,,,0.00,WUHU216HW,2013-07-27 12:52:00,
2013-07-27 08:57:00,72.5,65.4,30.02,SSE,158,1.1,2.0,78,0.00,,,0.00,WUHU216HW,2013-07-27 12:57:00,
2013-07-27 09:02:00,72.9,65.7,30.02,West,270,2.9,2.9,78,0.00,,,0.00,WUHU216HW,2013-07-27 13:02:00,
2013-07-27 09:07:00,72.9,65.7,30.02,WSW,248,1.8,2.9,78,0.00,,,0.00,WUHU216HW,2013-07-27 13:07:00,
2013-07-27 09:12:00,73.1,65.4,30.02,South,180,2.5,4.5,77,0.00,,,0.00,WUHU216HW,2013-07-27 13:12:00,
2013-07-27 09:17:00,73.3,66.1,30.02,SW,225,0.9,4.5,78,0.00,,,0.00,WUHU216HW,2013-07-27 13:17:00,
2013-07-27 09:22:00,73.4,65.8,30.02,ENE,68,0.4,2.7,77,0.00,,,0.00,WUHU216HW,2013-07-27 13:22:00,
2013-07-27 09:27:00,73.4,65.8,30.02,WSW,248,0.9,2.7,77,0.00,,,0.00,WUHU216HW,2013-07-27 13:27:00,
2013-07-27 09:32:00,73.8,66.2,30.02,West,270,2.0,2.7,77,0.00,,,0.00,WUHU216HW,2013-07-27 13:32:00,
2013-07-27 09:37:00,74.3,66.3,30.02,SSE,158,2.2,3.4,76,0.00,,,0.00,WUHU216HW,2013-07-27 13:37:00,
2013-07-27 09:42:00,75.2,67.6,30.02,WNW,293,1.6,3.4,77,0.00,,,0.00,WUHU216HW,2013-07-27 13:42:00,
2013-07-27 09:47:00,76.5,67.6,30.02,SSW,203,2.2,5.4,74,0.00,,,0.00,WUHU216HW,2013-07-27 13:47:00,
2013-07-27 09:52:00,76.9,66.8,30.02,SW,225,2.2,5.4,71,0.00,,,0.00,WUHU216HW,2013-07-27 13:52:00,
2013-07-27 09:57:00,76.9,66.4,30.02,SW,225,3.1,4.5,70,0.00,,,0.00,WUHU216HW,2013-07-27 13:57:00,
2013-07-27 10:02:00,76.7,66.6,30.02,West,270,1.8,5.4,71,0.00,,,0.00,WUHU216HW,2013-07-27 14:02:00,
2013-07-27 10:07:00,76.7,66.2,30.02,SW,225,2.5,5.4,70,0.00,,,0.00,WUHU216HW,2013-07-27 14:07:00,
2013-07-27 10:12:00,76.7,66.2,30.02,SSW,203,2.7,5.4,70,0.00,,,0.00,WUHU216HW,2013-07-27 14:12:00,
2013-07-27 10:17:00,77.0,67.0,30.02,SW,225,2.5,3.4,71,0.00,,,0.00,WUHU216HW,2013-07-27 14:17:00,
2013-07-27 10:22:00,77.0,67.0,30.02,SSW,203,3.1,4.0,71,0.00,,,0.00,WUHU216HW,2013-07-27 14:22:00,
2013-07-27 10:27:00,77.2,66.8,30.02,SSW,203,0.4,4.0,70,0.00,,,0.00,WUHU216HW,2013-07-27 14:27:00,
2013-07-27 10:32:00,77.4,66.5,30.02,SW,225,3.8,5.4,69,0.00,,,0.00,WUHU216HW,2013-07-27 14:32:00,
2013-07-27 10:37:00,77.0,66.2,30.02,SSW,203,4.3,7.2,69,0.00,,,0.00,WUHU216HW,2013-07-27 14:37:00,
2013-07-27 10:42:00,77.0,66.2,30.02,SW,225,5.6,7.2,69,0.00,,,0.00,WUHU216HW,2013-07-27 14:42:00,
2013-07-27 10:48:00,77.0,66.6,30.01,SSW,203,3.4,6.3,70,0.00,,,0.00,WUHU216HW,2013-07-27 14:48:00,
2013-07-27 10:53:00,77.0,66.2,30.01,NW,315,8.7,8.7,69,0.00,,,0.00,WUHU216HW,2013-07-27 14:53:00,
2013-07-27 10:58:00,77.2,66.8,30.01,SW,225,4.3,8.7,70,0.00,,,0.00,WUHU216HW,2013-07-27 14:58:00,
2013-07-27 11:03:00,77.4,66.5,30.01,SSW,203,3.4,8.7,69,0.00,,,0.00,WUHU216HW,2013-07-27 15:03:00,
2013-07-27 11:08:00,77.8,66.8,30.01,SW,225,3.8,5.1,69,0.00,,,0.00,WUHU216HW,2013-07-27 15:08:00,
2013-07-27 11:13:00,78.1,67.6,30.01,NW,315,3.4,5.4,70,0.00,,,0.00,WUHU216HW,2013-07-27 15:13:00,
2013-07-27 11:18:00,78.1,67.2,30.01,North,0,2.0,5.4,69,0.00,,,0.00,WUHU216HW,2013-07-27 15:18:00,
2013-07-27 11:23:00,77.9,67.8,30.01,West,270,3.4,5.6,71,0.00,,,0.00,WUHU216HW,2013-07-27 15:23:00,
2013-07-27 11:28:00,77.9,67.4,30.00,SW,225,2.5,5.6,70,0.00,,,0.00,WUHU216HW,2013-07-27 15:28:00,
2013-07-27 11:33:00,78.1,66.7,30.00,WSW,248,4.5,4.7,68,0.00,,,0.00,WUHU216HW,2013-07-27 15:33:00,
2013-07-27 11:38:00,77.9,67.4,30.00,WSW,248,1.8,4.7,70,0.00,,,0.00,WUHU216HW,2013-07-27 15:38:00,
2013-07-27 11:43:00,77.8,67.2,30.00,South,180,3.4,5.1,70,0.00,,,0.00,WUHU216HW,2013-07-27 15:43:00,
2013-07-27 11:48:00,77.9,67.8,30.00,SW,225,1.6,5.1,71,0.00,,,0.00,WUHU216HW,2013-07-27 15:48:00,
2013-07-27 11:53:00,78.1,67.6,30.00,WSW,248,2.0,6.3,70,0.00,,,0.00,WUHU216HW,2013-07-27 15:53:00,
2013-07-27 11:58:00,78.1,67.6,30.00,West,270,2.5,6.3,70,0.00,,,0.00,WUHU216HW,2013-07-27 15:58:00,
2013-07-27 12:03:00,78.3,68.1,30.00,SSW,203,2.7,4.9,71,0.00,,,0.00,WUHU216HW,2013-07-27 16:03:00,
2013-07-27 12:08:00,78.1,68.0,30.00,West,270,0.7,3.6,71,0.00,,,0.00,WUHU216HW,2013-07-27 16:08:00,
2013-07-27 12:13:00,77.9,67.8,30.00,SE,135,0.2,3.6,71,0.00,,,0.00,WUHU216HW,2013-07-27 16:13:00,
2013-07-27 12:18:00,77.8,68.1,30.00,SSW,203,0.4,3.6,72,0.00,,,0.00,WUHU216HW,2013-07-27 16:18:00,
2013-07-27 12:23:00,77.4,67.7,30.00,SSE,158,0.9,3.4,72,0.00,,,0.00,WUHU216HW,2013-07-27 16:23:00,
2013-07-27 12:28:00,77.2,67.5,30.00,SW,225,1.1,2.5,72,0.00,,,0.00,WUHU216HW,2013-07-27 16:28:00,
2013-07-27 12:33:00,77.2,67.9,30.00,SSE,158,0.9,2.2,73,0.00,,,0.00,WUHU216HW,2013-07-27 16:33:00,
2013-07-27 12:38:00,77.4,68.0,30.00,West,270,1.6,2.5,73,0.00,,,0.00,WUHU216HW,2013-07-27 16:38:00,
2013-07-27 12:43:00,77.6,68.2,30.00,WNW,293,1.8,2.5,73,0.00,,,0.00,WUHU216HW,2013-07-27 16:43:00,
2013-07-27 12:48:00,77.4,68.5,30.00,WSW,248,1.8,4.0,74,0.00,,,0.00,WUHU216HW,2013-07-27 16:48:00,
2013-07-27 12:53:00,77.0,68.5,30.00,WSW,248,1.3,4.0,75,0.00,,,0.00,WUHU216HW,2013-07-27 16:53:00,
2013-07-27 12:58:00,76.9,68.3,30.00,SW,225,3.4,3.8,75,0.00,,,0.00,WUHU216HW,2013-07-27 16:58:00,
2013-07-27 13:03:00,76.7,68.1,30.00,South,180,4.3,4.3,75,0.00,,,0.00,WUHU216HW,2013-07-27 17:03:00,
2013-07-27 13:08:00,76.7,67.4,30.00,SSW,203,4.5,5.4,73,0.00,,,0.00,WUHU216HW,2013-07-27 17:08:00,
2013-07-27 13:13:00,76.5,67.2,29.99,SW,225,4.0,5.4,73,0.00,,,0.00,WUHU216HW,2013-07-27 17:13:00,
2013-07-27 13:18:00,76.5,67.2,30.00,NW,315,4.7,5.8,73,0.00,,,0.00,WUHU216HW,2013-07-27 17:18:00,
2013-07-27 13:23:00,76.3,67.4,29.99,SSW,203,4.7,6.3,74,0.00,,,0.00,WUHU216HW,2013-07-27 17:23:00,
2013-07-27 13:28:00,76.1,67.2,29.99,SW,225,3.6,6.3,74,0.00,,,0.00,WUHU216HW,2013-07-27 17:28:00,
2013-07-27 13:33:00,76.3,67.8,29.99,WNW,293,4.3,5.4,75,0.00,,,0.00,WUHU216HW,2013-07-27 17:33:00,
2013-07-27 13:38:00,76.3,67.8,29.99,West,270,5.8,5.8,75,0.00,,,0.00,WUHU216HW,2013-07-27 17:38:00,
2013-07-27 13:43:00,76.1,67.2,29.99,SSW,203,6.5,6.5,74,0.00,,,0.00,WUHU216HW,2013-07-27 17:43:00,
2013-07-27 13:48:00,76.5,68.0,29.99,SSW,203,3.6,6.5,75,0.00,,,0.00,WUHU216HW,2013-07-27 17:48:00,
2013-07-27 13:53:00,76.9,68.3,29.98,SW,225,2.9,6.5,75,0.00,,,0.00,WUHU216HW,2013-07-27 17:53:00,
2013-07-27 13:58:00,77.2,67.9,29.98,WNW,293,3.4,5.1,73,0.00,,,0.00,WUHU216HW,2013-07-27 17:58:00,
2013-07-27 14:03:00,77.4,68.5,29.98,SSW,203,2.5,5.1,74,0.00,,,0.00,WUHU216HW,2013-07-27 18:03:00,
2013-07-27 14:08:00,77.2,68.3,29.98,WSW,248,2.9,5.1,74,0.00,,,0.00,WUHU216HW,2013-07-27 18:08:00,
2013-07-27 14:13:00,77.0,68.5,29.98,South,180,2.9,6.3,75,0.00,,,0.00,WUHU216HW,2013-07-27 18:13:00,
2013-07-27 14:18:00,76.7,68.1,29.98,SSW,203,1.8,6.3,75,0.00,,,0.00,WUHU216HW,2013-07-27 18:18:00,
2013-07-27 14:23:00,76.7,68.1,29.97,WSW,248,2.5,5.6,75,0.00,,,0.00,WUHU216HW,2013-07-27 18:23:00,
2013-07-27 14:28:00,76.7,68.1,29.97,SW,225,1.1,4.3,75,0.00,,,0.00,WUHU216HW,2013-07-27 18:28:00,
2013-07-27 14:33:00,76.9,68.3,29.97,SW,225,4.3,4.3,75,0.00,,,0.00,WUHU216HW,2013-07-27 18:33:00,
2013-07-27 14:38:00,77.6,69.0,29.97,WSW,248,1.1,4.3,75,0.00,,,0.00,WUHU216HW,2013-07-27 18:38:00,
2013-07-27 14:43:00,78.5,69.0,29.97,SSW,203,3.1,3.4,73,0.00,,,0.00,WUHU216HW,2013-07-27 18:43:00,
2013-07-27 14:48:00,78.3,68.5,29.97,SW,225,3.4,4.5,72,0.00,,,0.00,WUHU216HW,2013-07-27 18:48:00,
2013-07-27 14:53:00,78.1,68.8,29.97,West,270,5.1,5.4,73,0.00,,,0.00,WUHU216HW,2013-07-27 18:53:00,
2013-07-27 14:58:00,78.1,68.8,29.97,SSW,203,2.9,5.6,73,0.00,,,0.00,WUHU216HW,2013-07-27 18:58:00,
2013-07-27 15:03:00,78.3,69.3,29.97,SE,135,2.2,5.6,74,0.00,,,0.00,WUHU216HW,2013-07-27 19:03:00,
2013-07-27 15:08:00,78.5,69.0,29.97,WSW,248,3.4,4.5,73,0.00,,,0.00,WUHU216HW,2013-07-27 19:08:00,
2013-07-27 15:13:00,78.7,69.2,29.96,SSW,203,2.5,4.5,73,0.00,,,0.00,WUHU216HW,2013-07-27 19:13:00,
2013-07-27 15:18:00,78.8,69.0,29.96,WSW,248,2.9,4.0,72,0.00,,,0.00,WUHU216HW,2013-07-27 19:18:00,
2013-07-27 15:23:00,79.0,68.8,29.96,WNW,293,1.8,4.0,71,0.00,,,0.00,WUHU216HW,2013-07-27 19:23:00,
2013-07-27 15:28:00,79.4,68.8,29.95,South,180,2.7,4.0,70,0.00,,,0.00,WUHU216HW,2013-07-27 19:28:00,
2013-07-27 15:33:00,79.7,69.1,29.95,SE,135,2.2,4.9,70,0.00,,,0.00,WUHU216HW,2013-07-27 19:33:00,
2013-07-27 15:38:00,79.9,69.3,29.95,SE,135,1.8,4.9,70,0.00,,,0.00,WUHU216HW,2013-07-27 19:38:00,
2013-07-27 15:43:00,79.7,68.2,29.95,WSW,248,2.5,4.0,68,0.00,,,0.00,WUHU216HW,2013-07-27 19:43:00,
2013-07-27 15:48:00,79.4,68.3,29.95,SW,225,2.5,4.9,69,0.00,,,0.00,WUHU216HW,2013-07-27 19:48:00,
2013-07-27 15:53:00,79.0,68.8,29.95,SW,225,2.2,4.9,71,0.00,,,0.00,WUHU216HW,2013-07-27 19:53:00,
2013-07-27 15:58:00,78.7,69.2,29.95,SE,135,2.2,4.7,73,0.00,,,0.00,WUHU216HW,2013-07-27 19:58:00,
2013-07-27 16:03:00,78.3,67.8,29.95,ESE,113,6.9,6.9,70,0.00,,,0.00,WUHU216HW,2013-07-27 20:03:00,
2013-07-27 16:08:00,78.1,68.8,29.95,East,90,1.8,6.9,73,0.00,,,0.00,WUHU216HW,2013-07-27 20:08:00,
2013-07-27 16:13:00,77.9,68.9,29.95,SSW,203,2.0,6.9,74,0.00,,,0.00,WUHU216HW,2013-07-27 20:13:00,
2013-07-27 16:18:00,77.9,68.2,29.95,SW,225,4.0,4.0,72,0.00,,,0.00,WUHU216HW,2013-07-27 20:18:00,
2013-07-27 16:23:00,77.9,68.2,29.94,South,180,2.2,4.0,72,0.00,,,0.00,WUHU216HW,2013-07-27 20:23:00,
2013-07-27 16:28:00,77.8,68.1,29.94,SW,225,6.0,6.0,72,0.00,,,0.00,WUHU216HW,2013-07-27 20:28:00,
2013-07-27 16:33:00,77.6,68.2,29.94,SW,225,2.7,6.3,73,0.00,,,0.00,WUHU216HW,2013-07-27 20:33:00,
2013-07-27 16:38:00,77.6,68.2,29.95,SW,225,2.9,6.3,73,0.00,,,0.00,WUHU216HW,2013-07-27 20:38:00,
2013-07-27 16:43:00,77.4,68.0,29.95,WSW,248,4.5,5.4,73,0.00,,,0.00,WUHU216HW,2013-07-27 20:43:00,
2013-07-27 16:48:00,77.2,67.5,29.95,West,270,3.8,6.3,72,0.00,,,0.00,WUHU216HW,2013-07-27 20:48:00,
2013-07-27 16:53:00,77.4,66.5,29.94,SSW,203,6.9,8.9,69,0.00,,,0.00,WUHU216HW,2013-07-27 20:53:00,
2013-07-27 16:58:00,77.2,66.8,29.95,SSW,203,4.9,8.9,70,0.00,,,0.00,WUHU216HW,2013-07-27 20:58:00,
2013-07-27 17:03:00,77.2,66.8,29.94,SSW,203,5.1,8.3,70,0.00,,,0.00,WUHU216HW,2013-07-27 21:03:00,
2013-07-27 17:08:00,77.0,67.0,29.94,SSW,203,4.0,8.9,71,0.00,,,0.00,WUHU216HW,2013-07-27 21:08:00,
2013-07-27 17:13:00,76.9,66.8,29.94,WSW,248,2.2,8.9,71,0.00,,,0.00,WUHU216HW,2013-07-27 21:13:00,
2013-07-27 17:18:00,76.7,66.6,29.95,SW,225,4.7,7.6,71,0.00,,,0.00,WUHU216HW,2013-07-27 21:18:00,
2013-07-27 17:23:00,76.5,66.4,29.95,SSW,203,5.8,7.6,71,0.00,,,0.00,WUHU216HW,2013-07-27 21:23:00,
2013-07-27 17:28:00,76.3,66.7,29.95,SW,225,4.0,8.1,72,0.00,,,0.00,WUHU216HW,2013-07-27 21:28:00,
2013-07-27 17:33:00,76.1,66.5,29.94,WSW,248,2.0,8.1,72,0.00,,,0.00,WUHU216HW,2013-07-27 21:33:00,
2013-07-27 17:38:00,76.0,66.7,29.94,South,180,2.0,4.9,73,0.00,,,0.00,WUHU216HW,2013-07-27 21:38:00,
2013-07-27 17:43:00,76.0,67.1,29.94,WSW,248,1.6,4.9,74,0.00,,,0.00,WUHU216HW,2013-07-27 21:43:00,
2013-07-27 17:48:00,75.8,67.3,29.94,SSW,203,2.2,4.0,75,0.00,,,0.00,WUHU216HW,2013-07-27 21:48:00,
2013-07-27 17:53:00,75.8,67.3,29.94,SW,225,1.8,3.8,75,0.00,,,0.00,WUHU216HW,2013-07-27 21:53:00,
2013-07-27 17:58:00,76.0,67.5,29.94,SE,135,1.1,2.5,75,0.00,,,0.00,WUHU216HW,2013-07-27 21:58:00,
2013-07-27 18:03:00,76.1,67.7,29.94,SSE,158,1.1,1.8,75,0.00,,,0.00,WUHU216HW,2013-07-27 22:03:00,
2013-07-27 18:08:00,76.3,68.2,29.93,SE,135,3.1,4.0,76,0.00,,,0.00,WUHU216HW,2013-07-27 22:08:00,
2013-07-27 18:13:00,76.1,68.4,29.93,SSW,203,2.7,4.0,77,0.00,,,0.00,WUHU216HW,2013-07-27 22:13:00,
2013-07-27 18:18:00,76.1,68.4,29.94,South,180,3.8,4.3,77,0.00,,,0.00,WUHU216HW,2013-07-27 22:18:00,
2013-07-27 18:23:00,76.1,68.4,29.94,WSW,248,2.5,4.3,77,0.00,,,0.00,WUHU216HW,2013-07-27 22:23:00,
2013-07-27 18:28:00,76.1,68.4,29.94,SE,135,1.1,5.4,77,0.00,,,0.00,WUHU216HW,2013-07-27 22:28:00,
2013-07-27 18:33:00,76.1,68.1,29.93,SSW,203,5.4,5.4,76,0.00,,,0.00,WUHU216HW,2013-07-27 22:33:00,
2013-07-27 18:38:00,76.0,67.9,29.93,SE,135,2.9,5.4,76,0.00,,,0.00,WUHU216HW,2013-07-27 22:38:00,
2013-07-27 18:43:00,76.0,68.2,29.93,ESE,113,1.1,5.4,77,0.00,,,0.00,WUHU216HW,2013-07-27 22:43:00,
2013-07-27 18:48:00,75.8,67.7,29.94,SW,225,1.1,4.7,76,0.00,,,0.00,WUHU216HW,2013-07-27 22:48:00,
2013-07-27 18:53:00,75.6,68.0,29.94,SW,225,2.0,3.8,77,0.00,,,0.00,WUHU216HW,2013-07-27 22:53:00,
2013-07-27 18:58:00,75.4,67.8,29.94,SSE,158,0.4,4.9,77,0.00,,,0.00,WUHU216HW,2013-07-27 22:58:00,
2013-07-27 19:03:00,75.4,67.8,29.94,SW,225,2.5,4.9,77,0.00,,,0.00,WUHU216HW,2013-07-27 23:03:00,
2013-07-27 19:08:00,75.4,68.1,29.94,SSW,203,3.4,3.8,78,0.00,,,0.00,WUHU216HW,2013-07-27 23:08:00,
2013-07-27 19:13:00,75.2,68.4,29.94,SSW,203,3.4,3.8,79,0.00,,,0.00,WUHU216HW,2013-07-27 23:13:00,
2013-07-27 19:18:00,74.9,68.1,29.94,SSE,158,1.3,4.3,79,0.00,,,0.00,WUHU216HW,2013-07-27 23:18:00,
2013-07-27 19:23:00,74.5,68.0,29.94,SE,135,1.8,4.3,80,0.00,,,0.00,WUHU216HW,2013-07-27 23:23:00,
2013-07-27 19:28:00,74.5,68.0,29.95,WSW,248,1.1,2.7,80,0.00,,,0.00,WUHU216HW,2013-07-27 23:28:00,
2013-07-27 19:33:00,74.2,68.1,29.95,SSW,203,2.5,3.4,81,0.00,,,0.00,WUHU216HW,2013-07-27 23:33:00,
2013-07-27 19:38:00,74.2,68.1,29.95,SSW,203,1.3,3.4,81,0.00,,,0.00,WUHU216HW,2013-07-27 23:38:00,
2013-07-27 19:43:00,74.0,68.2,29.95,SSW,203,1.8,2.5,82,0.00,,,0.00,WUHU216HW,2013-07-27 23:43:00,
2013-07-27 19:48:00,73.8,68.1,29.95,SW,225,1.3,2.5,82,0.00,,,0.00,WUHU216HW,2013-07-27 23:48:00,
2013-07-27 19:53:00,73.6,68.1,29.95,SSE,158,1.3,2.5,83,0.00,,,0.00,WUHU216HW,2013-07-27 23:53:00,
2013-07-27 19:58:00,73.6,68.1,29.94,SSW,203,1.8,3.1,83,0.00,,,0.00,WUHU216HW,2013-07-27 23:58:00,
2013-07-27 20:03:00,73.4,68.0,29.95,WSW,248,2.5,3.1,83,0.00,,,0.00,WUHU216HW,2013-07-28 00:03:00,
2013-07-27 20:08:00,73.4,68.0,29.95,SSE,158,1.1,3.1,83,0.00,,,0.00,WUHU216HW,2013-07-28 00:08:00,
2013-07-27 20:13:00,73.4,68.0,29.95,SW,225,1.8,2.5,83,0.00,,,0.00,WUHU216HW,2013-07-28 00:13:00,
2013-07-27 20:18:00,73.3,67.8,29.95,SW,225,2.9,3.4,83,0.00,,,0.00,WUHU216HW,2013-07-28 00:18:00,
2013-07-27 20:23:00,73.1,67.6,29.94,SW,225,3.4,3.4,83,0.00,,,0.00,WUHU216HW,2013-07-28 00:23:00,
2013-07-27 20:28:00,73.1,67.6,29.94,SW,225,0.7,3.8,83,0.00,,,0.00,WUHU216HW,2013-07-28 00:28:00,
2013-07-27 20:33:00,72.9,67.4,29.94,South,180,0.9,3.8,83,0.00,,,0.00,WUHU216HW,2013-07-28 00:33:00,
2013-07-27 20:38:00,72.7,67.2,29.94,SSE,158,0.4,2.5,83,0.00,,,0.00,WUHU216HW,2013-07-28 00:38:00,
2013-07-27 20:43:00,72.7,67.0,29.94,SE,135,0.4,1.8,82,0.00,,,0.00,WUHU216HW,2013-07-28 00:43:00,
2013-07-27 20:48:00,72.5,66.8,29.94,SSW,203,1.1,1.3,82,0.00,,,0.00,WUHU216HW,2013-07-28 00:48:00,
2013-07-27 20:53:00,72.4,66.6,29.94,SW,225,0.4,1.3,82,0.00,,,0.00,WUHU216HW,2013-07-28 00:53:00,
2013-07-27 20:58:00,72.4,66.6,29.94,SW,225,0.7,1.3,82,0.00,,,0.00,WUHU216HW,2013-07-28 00:58:00,
2013-07-27 21:03:00,72.4,66.6,29.94,WSW,248,0.4,1.3,82,0.00,,,0.00,WUHU216HW,2013-07-28 01:03:00,
2013-07-27 21:08:00,72.4,66.9,29.94,SSW,203,0.7,1.6,83,0.00,,,0.00,WUHU216HW,2013-07-28 01:08:00,
2013-07-27 21:13:00,72.4,66.9,29.94,SSW,203,0.4,1.6,83,0.00,,,0.00,WUHU216HW,2013-07-28 01:13:00,
2013-07-27 21:18:00,72.4,66.6,29.94,WSW,248,0.4,1.6,82,0.00,,,0.00,WUHU216HW,2013-07-28 01:18:00,
2013-07-27 21:23:00,72.4,67.2,29.94,SSW,203,1.8,3.1,84,0.00,,,0.00,WUHU216HW,2013-07-28 01:23:00,
2013-07-27 21:28:00,72.2,67.1,29.94,SSW,203,0.2,3.1,84,0.00,,,0.00,WUHU216HW,2013-07-28 01:28:00,
2013-07-27 21:33:00,72.2,67.1,29.94,SSW,203,0.9,2.2,84,0.00,,,0.00,WUHU216HW,2013-07-28 01:33:00,
2013-07-27 21:38:00,72.0,66.9,29.94,SW,225,0.9,2.2,84,0.00,,,0.00,WUHU216HW,2013-07-28 01:38:00,
2013-07-27 21:43:00,72.0,66.9,29.94,SSW,203,1.1,1.8,84,0.00,,,0.00,WUHU216HW,2013-07-28 01:43:00,
2013-07-27 21:48:00,71.8,66.7,29.95,SW,225,0.4,1.8,84,0.00,,,0.00,WUHU216HW,2013-07-28 01:48:00,
2013-07-27 21:53:00,71.6,66.5,29.95,WSW,248,1.1,1.8,84,0.00,,,0.00,WUHU216HW,2013-07-28 01:53:00,
2013-07-27 21:58:00,71.8,67.1,29.95,SW,225,0.9,2.0,85,0.00,,,0.00,WUHU216HW,2013-07-28 01:58:00,
2013-07-27 22:03:00,71.6,66.9,29.95,SW,225,0.4,2.0,85,0.00,,,0.00,WUHU216HW,2013-07-28 02:03:00,
2013-07-27 22:08:00,71.5,66.7,29.95,SW,225,0.9,1.6,85,0.00,,,0.00,WUHU216HW,2013-07-28 02:08:00,
2013-07-27 22:13:00,71.3,66.2,29.95,SSW,203,0.0,1.3,84,0.00,,,0.00,WUHU216HW,2013-07-28 02:13:00,
2013-07-27 22:18:00,71.3,66.5,29.95,SSE,158,1.1,1.1,85,0.00,,,0.00,WUHU216HW,2013-07-28 02:18:00,
2013-07-27 22:23:00,71.3,66.5,29.95,ESE,113,1.8,2.9,85,0.00,,,0.00,WUHU216HW,2013-07-28 02:23:00,
2013-07-27 22:28:00,71.3,66.5,29.95,SSE,158,1.3,2.9,85,0.00,,,0.00,WUHU216HW,2013-07-28 02:28:00,
2013-07-27 22:33:00,71.3,66.2,29.94,South,180,0.4,1.8,84,0.00,,,0.00,WUHU216HW,2013-07-28 02:33:00,
2013-07-27 22:38:00,71.3,66.2,29.94,SSE,158,0.2,1.3,84,0.00,,,0.00,WUHU216HW,2013-07-28 02:38:00,
2013-07-27 22:43:00,71.1,66.0,29.94,WSW,248,0.4,1.6,84,0.00,,,0.00,WUHU216HW,2013-07-28 02:43:00,
2013-07-27 22:48:00,71.1,66.3,29.94,SW,225,1.1,1.8,85,0.00,,,0.00,WUHU216HW,2013-07-28 02:48:00,
2013-07-27 22:53:00,71.1,66.3,29.94,WSW,248,1.3,2.0,85,0.00,,,0.00,WUHU216HW,2013-07-28 02:53:00,
2013-07-27 22:58:00,70.9,66.2,29.94,SSW,203,0.7,2.0,85,0.00,,,0.00,WUHU216HW,2013-07-28 02:58:00,
2013-07-27 23:03:00,70.6,65.8,29.94,South,180,0.4,1.3,85,0.00,,,0.00,WUHU216HW,2013-07-28 03:03:00,
2013-07-27 23:08:00,70.6,65.8,29.94,SW,225,0.7,1.1,85,0.00,,,0.00,WUHU216HW,2013-07-28 03:08:00,
2013-07-27 23:13:00,70.7,66.0,29.94,SSW,203,1.3,2.2,85,0.00,,,0.00,WUHU216HW,2013-07-28 03:13:00,
2013-07-27 23:18:00,70.7,66.3,29.94,SW,225,2.2,2.2,86,0.00,,,0.00,WUHU216HW,2013-07-28 03:18:00,
2013-07-27 23:23:00,70.6,66.5,29.94,SW,225,1.3,2.2,87,0.00,,,0.00,WUHU216HW,2013-07-28 03:23:00,
2013-07-27 23:28:00,70.6,66.5,29.94,SW,225,1.1,2.2,87,0.00,,,0.00,WUHU216HW,2013-07-28 03:28:00,
2013-07-27 23:33:00,70.4,66.3,29.94,SSW,203,3.1,3.1,87,0.00,,,0.00,WUHU216HW,2013-07-28 03:33:00,
2013-07-27 23:38:00,70.4,66.3,29.94,SW,225,1.8,3.1,87,0.00,,,0.00,WUHU216HW,2013-07-28 03:38:00,
2013-07-27 23:43:00,70.6,66.2,29.94,SSW,203,1.3,3.1,86,0.00,,,0.00,WUHU216HW,2013-07-28 03:43:00,
2013-07-27 23:48:00,70.7,66.0,29.94,WSW,248,2.9,2.9,85,0.00,,,0.00,WUHU216HW,2013-07-28 03:48:00,
2013-07-27 23:53:00,70.9,66.2,29.94,SSE,158,2.2,3.6,85,0.00,,,0.00,WUHU216HW,2013-07-28 03:53:00,
2013-07-27 23:58:00,70.9,65.8,29.94,SSW,203,2.2,3.6,84,0.00,,,0.00,WUHU216HW,2013-07-28 03:58:00,